createdAt,value
2023-01-06T00:01:07.816Z,100436.84
2023-01-06T00:03:35.656Z,100446.94
2023-01-06T00:06:04.049Z,100452.91
2023-01-06T00:08:31.388Z,100439.13
2023-01-06T00:10:58.262Z,100455.41
2023-01-06T00:13:25.928Z,100463.00
2023-01-06T00:15:53.044Z,100463.25
2023-01-06T00:18:20.014Z,100462.97
2023-01-06T00:20:46.884Z,100466.22
2023-01-06T00:23:13.844Z,100465.44
2023-01-06T00:25:40.758Z,100471.47
2023-01-06T00:28:07.832Z,100468.91
2023-01-06T00:30:34.834Z,100481.03
2023-01-06T00:33:01.875Z,100485.06
2023-01-06T00:35:28.804Z,100490.97
2023-01-06T00:37:55.684Z,100497.56
2023-01-06T00:40:22.624Z,100505.38
2023-01-06T00:42:49.497Z,100505.50
2023-01-06T00:45:16.516Z,100507.31
2023-01-06T00:47:43.817Z,100514.22
2023-01-06T00:50:11.067Z,100516.16
2023-01-06T00:52:40.067Z,100526.72
2023-01-06T00:55:07.425Z,100531.94
2023-01-06T00:57:36.004Z,100534.44
2023-01-06T01:00:04.517Z,100536.88
2023-01-06T01:02:34.564Z,100547.28
2023-01-06T01:05:01.655Z,100552.22
2023-01-06T01:07:28.602Z,100554.00
2023-01-06T01:09:55.557Z,100557.22
2023-01-06T01:12:22.488Z,100567.47
2023-01-06T01:14:51.598Z,100586.34
2023-01-06T01:17:21.923Z,100580.28
2023-01-06T01:19:50.525Z,100581.72
2023-01-06T01:22:18.209Z,100590.22
2023-01-06T01:24:45.239Z,100597.06
2023-01-06T01:27:12.807Z,100586.41
2023-01-06T01:29:39.840Z,100596.44
2023-01-06T01:32:07.243Z,100600.91
2023-01-06T01:34:34.660Z,100599.91
2023-01-06T01:37:02.161Z,100588.75
2023-01-06T01:39:30.260Z,100596.31
2023-01-06T01:41:58.779Z,100598.25
2023-01-06T01:45:02.999Z,100607.59
2023-01-06T01:47:54.327Z,100611.06
2023-01-06T01:50:28.896Z,100613.72
2023-01-06T01:53:17.781Z,100616.06
2023-01-06T01:55:44.759Z,100620.94
2023-01-06T01:58:20.646Z,100617.25
2023-01-06T02:00:47.638Z,100625.84
2023-01-06T02:03:15.604Z,100636.88
2023-01-06T02:05:45.774Z,100631.75
2023-01-06T02:08:37.024Z,100636.91
2023-01-06T02:11:04.882Z,100647.28
2023-01-06T02:13:33.678Z,100655.66
2023-01-06T02:16:28.097Z,100660.78
2023-01-06T02:19:20.101Z,100651.28
2023-01-06T02:22:17.443Z,100653.84
2023-01-06T02:24:53.861Z,100652.03
2023-01-06T02:27:45.585Z,100659.63
2023-01-06T02:30:15.812Z,100653.38
2023-01-06T02:32:52.146Z,100657.63
2023-01-06T02:35:46.879Z,100656.69
2023-01-06T02:38:19.618Z,100657.69
2023-01-06T02:40:55.517Z,100664.38
2023-01-06T02:43:29.975Z,100663.63
2023-01-06T02:46:24.701Z,100658.19
2023-01-06T02:48:59.037Z,100644.72
2023-01-06T02:51:57.568Z,100642.56
2023-01-06T02:54:43.448Z,100650.91
2023-01-06T02:57:23.737Z,100645.91
2023-01-06T02:59:59.677Z,100647.44
2023-01-06T03:02:28.227Z,100642.41
2023-01-06T03:04:56.713Z,100625.06
2023-01-06T03:07:25.282Z,100629.50
2023-01-06T03:09:53.755Z,100626.31
2023-01-06T03:12:41.696Z,100627.94
2023-01-06T03:15:09.557Z,100637.44
2023-01-06T03:17:36.979Z,100643.44
2023-01-06T03:20:04.451Z,100633.66
2023-01-06T03:22:35.962Z,100633.81
2023-01-06T03:25:02.998Z,100641.53
2023-01-06T03:27:30.259Z,100641.59
2023-01-06T03:29:57.362Z,100646.75
2023-01-06T03:32:33.573Z,100636.84
2023-01-06T03:35:15.128Z,100647.44
2023-01-06T03:38:08.202Z,100653.22
2023-01-06T03:40:56.077Z,100648.41
2023-01-06T03:43:32.881Z,100660.69
2023-01-06T03:46:06.478Z,100664.13
2023-01-06T03:48:53.601Z,100656.16
2023-01-06T03:52:19.818Z,100657.78
2023-01-06T03:54:57.842Z,100655.38
2023-01-06T03:57:29.056Z,100672.41
2023-01-06T04:00:02.944Z,100667.97
2023-01-06T04:02:40.260Z,100661.81
2023-01-06T04:05:18.211Z,100650.59
2023-01-06T04:07:46.663Z,100655.97
2023-01-06T04:10:17.121Z,100663.78
2023-01-06T04:12:46.138Z,100660.16
2023-01-06T04:15:19.882Z,100663.53
2023-01-06T04:17:49.038Z,100658.69
2023-01-06T04:20:20.039Z,100656.22
2023-01-06T04:22:49.483Z,100662.16
2023-01-06T04:25:16.717Z,100650.16
2023-01-06T04:27:44.119Z,100648.75
2023-01-06T04:30:11.920Z,100662.09
2023-01-06T04:32:39.659Z,100655.97
2023-01-06T04:35:09.399Z,100656.84
2023-01-06T04:37:36.935Z,100651.97
2023-01-06T04:40:04.449Z,100662.34
2023-01-06T04:42:51.407Z,100654.63
2023-01-06T04:45:18.858Z,100663.03
2023-01-06T04:47:45.757Z,100678.06
2023-01-06T04:50:12.719Z,100670.66
2023-01-06T04:52:40.059Z,100675.84
2023-01-06T04:55:07.278Z,100674.97
2023-01-06T04:57:34.355Z,100674.81
2023-01-06T05:00:01.287Z,100678.94
2023-01-06T05:02:29.034Z,100683.25
2023-01-06T05:04:56.096Z,100687.09
2023-01-06T05:07:23.282Z,100689.31
2023-01-06T05:09:50.395Z,100692.13
2023-01-06T05:12:17.439Z,100687.47
2023-01-06T05:14:44.601Z,100679.94
2023-01-06T05:17:11.741Z,100677.84
2023-01-06T05:19:38.923Z,100674.97
2023-01-06T05:22:05.824Z,100669.84
2023-01-06T05:24:32.860Z,100670.31
2023-01-06T05:27:00.010Z,100671.19
2023-01-06T05:29:27.059Z,100665.50
2023-01-06T05:31:54.252Z,100661.47
2023-01-06T05:34:21.142Z,100666.00
2023-01-06T05:36:48.118Z,100662.41
2023-01-06T05:39:14.998Z,100678.34
2023-01-06T05:41:42.019Z,100673.91
2023-01-06T05:44:09.045Z,100674.19
2023-01-06T05:46:36.287Z,100694.91
2023-01-06T05:49:03.184Z,100680.97
2023-01-06T05:51:30.362Z,100686.06
2023-01-06T05:53:57.266Z,100692.66
2023-01-06T05:56:24.385Z,100688.75
2023-01-06T05:58:53.068Z,100685.28
2023-01-06T06:01:28.266Z,100679.06
2023-01-06T06:03:55.588Z,100676.63
2023-01-06T06:06:23.765Z,100669.34
2023-01-06T06:08:50.942Z,100663.34
2023-01-06T06:11:19.355Z,100670.34
2023-01-06T06:13:54.402Z,100680.66
2023-01-06T06:16:27.343Z,100675.53
2023-01-06T06:18:56.344Z,100678.41
2023-01-06T06:21:28.518Z,100671.13
2023-01-06T06:23:56.887Z,100656.63
2023-01-06T06:26:24.282Z,100667.13
2023-01-06T06:28:51.598Z,100676.88
2023-01-06T06:31:26.766Z,100668.47
2023-01-06T06:33:56.522Z,100656.31
2023-01-06T06:36:24.079Z,100649.28
2023-01-06T06:38:52.039Z,100646.72
2023-01-06T06:41:19.671Z,100651.13
2023-01-06T06:43:46.820Z,100648.56
2023-01-06T06:46:13.717Z,100647.41
2023-01-06T06:48:40.682Z,100661.19
2023-01-06T06:51:10.436Z,100650.38
2023-01-06T06:53:38.366Z,100664.81
2023-01-06T06:56:06.603Z,100673.41
2023-01-06T06:58:34.002Z,100665.63
2023-01-06T07:01:05.146Z,100655.28
2023-01-06T07:03:32.207Z,100656.47
2023-01-06T07:05:59.501Z,100655.19
2023-01-06T07:08:27.760Z,100650.50
2023-01-06T07:10:55.275Z,100661.06
2023-01-06T07:13:22.241Z,100675.66
2023-01-06T07:15:49.357Z,100664.97
2023-01-06T07:18:17.075Z,100675.19
2023-01-06T07:20:48.784Z,100673.72
2023-01-06T07:23:16.003Z,100670.41
2023-01-06T07:25:43.101Z,100673.47
2023-01-06T07:28:10.090Z,100677.38
2023-01-06T07:30:37.372Z,100666.47
2023-01-06T07:33:04.900Z,100677.00
2023-01-06T07:35:31.897Z,100675.84
2023-01-06T07:38:05.931Z,100680.38
2023-01-06T07:40:33.480Z,100684.69
2023-01-06T07:43:05.542Z,100675.25
2023-01-06T07:45:32.948Z,100673.06
2023-01-06T07:48:00.032Z,100677.59
2023-01-06T07:50:27.862Z,100681.44
2023-01-06T07:52:57.959Z,100679.88
2023-01-06T07:55:25.576Z,100679.75
2023-01-06T07:57:53.175Z,100685.13
2023-01-06T08:00:20.750Z,100689.72
2023-01-06T08:02:47.916Z,100679.53
2023-01-06T08:05:15.134Z,100672.69
2023-01-06T08:07:42.231Z,100683.53
2023-01-06T08:10:09.612Z,100681.91
2023-01-06T08:12:37.360Z,100664.78
2023-01-06T08:15:05.507Z,100665.72
2023-01-06T08:17:32.842Z,100655.28
2023-01-06T08:19:59.944Z,100652.03
2023-01-06T08:22:27.192Z,100648.56
2023-01-06T08:24:54.196Z,100643.44
2023-01-06T08:27:21.357Z,100635.09
2023-01-06T08:29:50.341Z,100626.69
2023-01-06T08:32:17.494Z,100624.94
2023-01-06T08:34:44.474Z,100612.09
2023-01-06T08:37:11.507Z,100607.66
2023-01-06T08:39:38.642Z,100610.06
2023-01-06T08:42:05.787Z,100616.88
2023-01-06T08:44:32.767Z,100616.97
2023-01-06T08:46:59.703Z,100623.81
2023-01-06T08:49:26.807Z,100628.94
2023-01-06T08:51:53.724Z,100624.69
2023-01-06T08:54:21.035Z,100622.09
2023-01-06T08:56:48.233Z,100632.31
2023-01-06T08:59:17.203Z,100639.03
2023-01-06T09:01:45.029Z,100629.88
2023-01-06T09:04:12.901Z,100635.88
2023-01-06T09:06:42.749Z,100642.81
2023-01-06T09:09:12.085Z,100640.38
2023-01-06T09:11:48.283Z,100642.88
2023-01-06T09:14:15.458Z,100644.75
2023-01-06T09:16:42.528Z,100641.25
2023-01-06T09:19:10.546Z,100637.69
2023-01-06T09:21:38.229Z,100646.31
2023-01-06T09:24:05.597Z,100657.63
2023-01-06T09:26:32.871Z,100648.25
2023-01-06T09:29:00.026Z,100631.97
2023-01-06T09:31:27.257Z,100637.03
2023-01-06T09:33:54.533Z,100619.88
2023-01-06T09:36:21.961Z,100608.91
2023-01-06T09:38:48.974Z,100591.91
2023-01-06T09:41:49.275Z,100581.47
2023-01-06T09:44:36.916Z,100587.34
2023-01-06T09:47:04.188Z,100583.06
2023-01-06T09:49:47.405Z,100576.06
2023-01-06T09:52:48.223Z,100586.34
2023-01-06T09:55:35.098Z,100595.03
2023-01-06T09:58:06.916Z,100589.88
2023-01-06T10:00:38.404Z,100573.78
2023-01-06T10:03:06.256Z,100567.94
2023-01-06T10:05:48.372Z,100566.25
2023-01-06T10:08:37.352Z,100570.38
2023-01-06T10:11:33.138Z,100564.38
2023-01-06T10:14:18.698Z,100553.31
2023-01-06T10:17:10.541Z,100541.28
2023-01-06T10:19:56.622Z,100543.06
2023-01-06T10:22:31.337Z,100540.34
2023-01-06T10:25:00.898Z,100529.16
2023-01-06T10:27:38.315Z,100528.94
2023-01-06T10:30:17.681Z,100528.13
2023-01-06T10:32:46.004Z,100535.75
2023-01-06T10:35:14.417Z,100536.38
2023-01-06T10:37:42.496Z,100538.06
2023-01-06T10:40:18.267Z,100530.44
2023-01-06T10:43:00.515Z,100523.88
2023-01-06T10:45:47.216Z,100520.53
2023-01-06T10:48:20.504Z,100521.00
2023-01-06T10:50:47.841Z,100518.69
2023-01-06T10:53:15.728Z,100522.72
2023-01-06T10:55:57.197Z,100529.19
2023-01-06T10:58:47.676Z,100523.72
2023-01-06T11:01:18.028Z,100526.78
2023-01-06T11:03:45.907Z,100520.09
2023-01-06T11:06:23.142Z,100516.72
2023-01-06T11:08:50.258Z,100506.53
2023-01-06T11:11:34.457Z,100510.09
2023-01-06T11:14:05.542Z,100502.47
2023-01-06T11:16:34.360Z,100502.63
2023-01-06T11:19:04.194Z,100497.41
2023-01-06T11:21:47.351Z,100488.94
2023-01-06T11:24:23.472Z,100478.69
2023-01-06T11:27:00.554Z,100469.13
2023-01-06T11:29:36.745Z,100468.25
2023-01-06T11:32:25.716Z,100461.25
2023-01-06T11:34:58.473Z,100447.41
2023-01-06T11:37:34.118Z,100448.28
2023-01-06T11:40:16.535Z,100432.09
2023-01-06T11:42:43.820Z,100421.84
2023-01-06T11:45:30.608Z,100421.81
2023-01-06T11:47:57.785Z,100420.09
2023-01-06T11:50:24.868Z,100416.69
2023-01-06T11:53:03.574Z,100412.44
2023-01-06T11:55:31.047Z,100410.91
2023-01-06T11:58:18.937Z,100406.84
2023-01-06T12:00:57.125Z,100402.66
2023-01-06T12:03:27.180Z,100399.84
2023-01-06T12:06:22.131Z,100392.94
2023-01-06T12:09:12.418Z,100391.13
2023-01-06T12:11:58.817Z,100383.44
2023-01-06T12:14:33.122Z,100391.75
2023-01-06T12:17:18.845Z,100387.47
2023-01-06T12:19:59.597Z,100380.59
2023-01-06T12:22:45.702Z,100372.88
2023-01-06T12:25:21.776Z,100368.50
2023-01-06T12:27:58.780Z,100359.94
2023-01-06T12:30:35.360Z,100362.63
2023-01-06T12:33:12.277Z,100359.13
2023-01-06T12:35:39.744Z,100350.56
2023-01-06T12:38:18.300Z,100345.25
2023-01-06T12:40:52.381Z,100339.19
2023-01-06T12:43:28.578Z,100329.72
2023-01-06T12:46:04.936Z,100320.72
2023-01-06T12:48:58.743Z,100320.47
2023-01-06T12:51:36.998Z,100309.31
2023-01-06T12:54:16.067Z,100304.53
2023-01-06T12:56:55.400Z,100293.25
2023-01-06T12:59:57.488Z,100294.66
2023-01-06T13:02:48.850Z,100291.81
2023-01-06T13:05:34.409Z,100295.25
2023-01-06T13:08:10.970Z,100290.00
2023-01-06T13:10:42.644Z,100292.50
2023-01-06T13:13:18.977Z,100295.03
2023-01-06T13:15:46.139Z,100295.91
2023-01-06T13:18:38.032Z,100282.97
2023-01-06T13:21:14.215Z,100286.16
2023-01-06T13:23:52.922Z,100275.78
2023-01-06T13:26:38.602Z,100262.91
2023-01-06T13:29:21.751Z,100259.28
2023-01-06T13:31:48.867Z,100255.00
2023-01-06T13:34:48.178Z,100252.53
2023-01-06T13:37:26.291Z,100256.59
2023-01-06T13:40:14.427Z,100248.78
2023-01-06T13:43:06.634Z,100251.22
2023-01-06T13:45:37.189Z,100242.63
2023-01-06T13:48:08.997Z,100236.78
2023-01-06T13:50:39.607Z,100235.91
2023-01-06T13:53:07.298Z,100239.28
2023-01-06T13:55:36.957Z,100230.63
2023-01-06T13:58:25.857Z,100227.00
2023-01-06T14:01:11.603Z,100225.09
2023-01-06T14:03:43.263Z,100228.41
2023-01-06T14:06:12.617Z,100222.25
2023-01-06T14:08:48.207Z,100212.69
2023-01-06T14:11:22.513Z,100218.63
2023-01-06T14:13:53.111Z,100212.47
2023-01-06T14:16:21.679Z,100211.63
2023-01-06T14:18:52.275Z,100203.91
2023-01-06T14:21:28.339Z,100206.47
2023-01-06T14:23:56.832Z,100195.44
2023-01-06T14:27:01.045Z,100186.94
2023-01-06T14:29:40.228Z,100185.34
2023-01-06T14:32:08.780Z,100181.09
2023-01-06T14:34:37.019Z,100181.78
2023-01-06T14:37:05.651Z,100174.13
2023-01-06T14:39:35.694Z,100175.84
2023-01-06T14:42:13.590Z,100169.00
2023-01-06T14:44:52.954Z,100167.25
2023-01-06T14:47:32.187Z,100157.97
2023-01-06T14:50:06.332Z,100157.03
2023-01-06T14:52:36.074Z,100153.56
2023-01-06T14:55:09.192Z,100150.13
2023-01-06T14:57:42.324Z,100129.59
2023-01-06T15:00:18.858Z,100135.66
2023-01-06T15:02:48.449Z,100121.13
2023-01-06T15:05:27.693Z,100116.91
2023-01-06T15:08:14.446Z,100116.81
2023-01-06T15:10:49.791Z,100101.50
2023-01-06T15:13:27.635Z,100087.84
2023-01-06T15:15:59.750Z,100085.41
2023-01-06T15:18:26.985Z,100070.00
2023-01-06T15:20:55.092Z,100069.13
2023-01-06T15:23:22.335Z,100068.22
2023-01-06T15:25:51.272Z,100067.34
2023-01-06T15:28:38.717Z,100065.84
2023-01-06T15:31:05.664Z,100070.56
2023-01-06T15:33:42.027Z,100065.03
2023-01-06T15:36:11.652Z,100061.38
2023-01-06T15:38:41.684Z,100065.53
2023-01-06T15:41:28.724Z,100060.47
2023-01-06T15:43:56.319Z,100063.84
2023-01-06T15:46:23.873Z,100067.09
2023-01-06T15:48:51.636Z,100064.59
2023-01-06T15:51:20.694Z,100063.72
2023-01-06T15:53:49.593Z,100056.09
2023-01-06T15:56:20.487Z,100054.38
2023-01-06T15:58:49.913Z,100042.44
2023-01-06T16:01:19.210Z,100035.59
2023-01-06T16:03:53.252Z,100039.03
2023-01-06T16:06:34.424Z,100034.84
2023-01-06T16:09:20.161Z,100041.06
2023-01-06T16:12:11.966Z,100025.72
2023-01-06T16:14:43.836Z,100030.00
2023-01-06T16:17:32.195Z,100030.06
2023-01-06T16:20:04.284Z,100026.66
2023-01-06T16:22:38.257Z,100024.94
2023-01-06T16:25:25.912Z,100022.53
2023-01-06T16:27:55.996Z,100023.56
2023-01-06T16:30:36.500Z,100024.50
2023-01-06T16:33:04.295Z,100023.75
2023-01-06T16:35:33.947Z,100030.56
2023-01-06T16:38:01.072Z,100034.06
2023-01-06T16:40:29.291Z,100020.38
2023-01-06T16:43:02.997Z,100018.69
2023-01-06T16:45:35.836Z,100021.34
2023-01-06T16:48:03.456Z,100013.72
2023-01-06T16:50:38.335Z,100004.41
2023-01-06T16:53:22.201Z,100007.13
2023-01-06T16:55:54.319Z,99997.72
2023-01-06T16:58:29.909Z,99999.50
2023-01-06T17:01:05.328Z,99999.63
2023-01-06T17:03:36.796Z,99996.19
2023-01-06T17:06:03.995Z,99999.72
2023-01-06T17:08:34.537Z,100006.59
2023-01-06T17:11:04.281Z,99994.66
2023-01-06T17:13:37.175Z,99993.88
2023-01-06T17:16:10.658Z,100006.78
2023-01-06T17:18:56.466Z,99990.66
2023-01-06T17:21:28.925Z,99980.41
2023-01-06T17:24:06.537Z,99980.50
2023-01-06T17:26:35.212Z,99982.22
2023-01-06T17:29:02.980Z,99984.00
2023-01-06T17:31:35.073Z,99973.88
2023-01-06T17:34:15.331Z,99976.50
2023-01-06T17:36:44.829Z,99976.66
2023-01-06T17:39:41.246Z,99985.22
2023-01-06T17:42:08.370Z,99968.94
2023-01-06T17:44:40.890Z,99970.69
2023-01-06T17:47:20.936Z,99972.56
2023-01-06T17:49:51.307Z,99984.53
2023-01-06T17:52:22.544Z,99977.81
2023-01-06T17:55:21.206Z,99972.84
2023-01-06T17:57:48.536Z,99974.53
2023-01-06T18:00:22.695Z,99970.34
2023-01-06T18:02:59.520Z,99977.28
2023-01-06T18:05:26.750Z,99974.78
2023-01-06T18:08:07.432Z,99973.19
2023-01-06T18:10:39.242Z,99969.88
2023-01-06T18:13:15.005Z,99969.97
2023-01-06T18:15:42.380Z,99970.94
2023-01-06T18:18:22.587Z,99962.59
2023-01-06T18:21:27.082Z,99972.19
2023-01-06T18:23:54.495Z,99974.72
2023-01-06T18:26:41.076Z,99961.06
2023-01-06T18:29:15.829Z,99954.28
2023-01-06T18:31:43.267Z,99955.25
2023-01-06T18:34:32.198Z,99957.00
2023-01-06T18:37:01.241Z,99942.50
2023-01-06T18:39:30.826Z,99943.31
2023-01-06T18:42:11.555Z,99934.84
2023-01-06T18:44:38.837Z,99951.16
2023-01-06T18:47:14.812Z,99943.47
2023-01-06T18:49:42.133Z,99932.50
2023-01-06T18:52:37.205Z,99951.50
2023-01-06T18:55:19.405Z,99953.41
2023-01-06T18:57:57.687Z,99942.47
2023-01-06T19:00:36.760Z,99951.13
2023-01-06T19:03:26.588Z,99939.28
2023-01-06T19:06:12.474Z,99942.75
2023-01-06T19:08:41.838Z,99935.19
2023-01-06T19:11:15.716Z,99945.47
2023-01-06T19:13:44.141Z,99938.66
2023-01-06T19:16:30.306Z,99943.13
2023-01-06T19:19:16.520Z,99938.00
2023-01-06T19:21:44.500Z,99930.38
2023-01-06T19:24:53.927Z,99926.09
2023-01-06T19:27:53.435Z,99922.03
2023-01-06T19:30:40.417Z,99912.69
2023-01-06T19:33:17.272Z,99915.31
2023-01-06T19:35:44.740Z,99921.44
2023-01-06T19:38:26.151Z,99918.97
2023-01-06T19:40:53.836Z,99916.59
2023-01-06T19:43:39.019Z,99908.06
2023-01-06T19:46:23.918Z,99906.47
2023-01-06T19:48:51.901Z,99926.22
2023-01-06T19:51:34.953Z,99930.56
2023-01-06T19:54:34.947Z,99933.38
2023-01-06T19:57:02.959Z,99929.16
2023-01-06T19:59:34.332Z,99929.13
2023-01-06T20:02:09.234Z,99929.28
2023-01-06T20:04:36.972Z,99925.81
2023-01-06T20:07:04.536Z,99917.28
2023-01-06T20:09:33.666Z,99924.22
2023-01-06T20:12:01.362Z,99926.91
2023-01-06T20:14:28.282Z,99923.53
2023-01-06T20:16:55.248Z,99916.78
2023-01-06T20:19:22.248Z,99917.56
2023-01-06T20:21:49.250Z,99918.50
2023-01-06T20:24:16.227Z,99921.13
2023-01-06T20:26:43.559Z,99922.06
2023-01-06T20:29:10.718Z,99915.25
2023-01-06T20:31:37.985Z,99914.44
2023-01-06T20:34:05.560Z,99917.84
2023-01-06T20:36:32.697Z,99917.91
2023-01-06T20:38:59.935Z,99925.63
2023-01-06T20:41:27.137Z,99928.31
2023-01-06T20:43:54.280Z,99930.09
2023-01-06T20:46:21.471Z,99929.31
2023-01-06T20:48:48.638Z,99929.34
2023-01-06T20:51:15.757Z,99929.34
2023-01-06T20:53:42.734Z,99931.91
2023-01-06T20:56:09.768Z,99917.34
2023-01-06T20:58:36.965Z,99931.06
2023-01-06T21:01:04.167Z,99929.47
2023-01-06T21:03:31.942Z,99925.28
2023-01-06T21:05:59.525Z,99937.25
2023-01-06T21:08:27.152Z,99937.31
2023-01-06T21:10:54.263Z,99931.34
2023-01-06T21:13:23.949Z,99942.47
2023-01-06T21:15:51.523Z,99935.66
2023-01-06T21:18:18.376Z,99937.41
2023-01-06T21:20:46.516Z,99940.84
2023-01-06T21:23:15.129Z,99940.00
2023-01-06T21:25:43.177Z,99932.41
2023-01-06T21:28:10.550Z,99938.47
2023-01-06T21:30:38.051Z,99942.84
2023-01-06T21:33:05.156Z,99938.66
2023-01-06T21:35:33.579Z,99942.16
2023-01-06T21:38:01.141Z,99933.72
2023-01-06T21:40:28.590Z,99938.00
2023-01-06T21:43:14.622Z,99940.59
2023-01-06T21:45:43.208Z,99934.41
2023-01-06T21:48:12.339Z,99942.06
2023-01-06T21:50:44.055Z,99939.53
2023-01-06T21:53:11.557Z,99942.25
2023-01-06T21:55:39.436Z,99946.38
2023-01-06T21:58:06.575Z,99948.91
2023-01-06T22:00:33.615Z,99944.66
2023-01-06T22:03:00.832Z,99945.59
2023-01-06T22:05:27.958Z,99950.78
2023-01-06T22:07:54.901Z,99955.91
2023-01-06T22:10:23.680Z,99958.38
2023-01-06T22:12:52.956Z,99962.72
2023-01-06T22:15:21.065Z,99974.78
2023-01-06T22:17:48.326Z,99972.44
2023-01-06T22:20:17.704Z,99977.81
2023-01-06T22:22:44.997Z,99977.94
2023-01-06T22:25:12.165Z,99984.06
2023-01-06T22:27:39.326Z,99976.47
2023-01-06T22:30:06.883Z,99975.72
2023-01-06T22:32:45.330Z,99984.41
2023-01-06T22:35:13.547Z,99976.91
2023-01-06T22:37:40.878Z,99981.34
2023-01-06T22:40:09.558Z,99984.06
2023-01-06T22:42:36.738Z,99989.34
2023-01-06T22:45:04.780Z,99989.47
2023-01-06T22:47:31.781Z,99992.16
2023-01-06T22:49:58.958Z,99984.56
2023-01-06T22:52:26.321Z,99983.75
2023-01-06T22:54:53.260Z,99998.28
2023-01-06T22:57:20.317Z,99999.09
2023-01-06T22:59:47.312Z,100000.00
2023-01-06T23:02:14.552Z,100000.94
2023-01-06T23:04:41.616Z,100003.53
2023-01-06T23:07:08.689Z,100010.41
2023-01-06T23:09:35.780Z,100018.13
2023-01-06T23:12:02.746Z,100020.72
2023-01-06T23:14:29.757Z,100019.03
2023-01-06T23:16:56.702Z,100026.75
2023-01-06T23:19:24.018Z,100025.06
2023-01-06T23:21:51.019Z,100018.22
2023-01-06T23:24:17.979Z,100027.84
2023-01-06T23:26:46.483Z,100029.53
2023-01-06T23:29:13.958Z,100031.28
2023-01-06T23:31:45.250Z,100035.56
2023-01-06T23:34:14.524Z,100035.59
2023-01-06T23:36:42.154Z,100041.63
2023-01-06T23:39:11.800Z,100036.41
2023-01-06T23:41:38.982Z,100044.16
2023-01-06T23:44:06.626Z,100044.16
2023-01-06T23:46:38.462Z,100049.28
2023-01-06T23:49:06.322Z,100050.19
2023-01-06T23:51:33.965Z,100059.81
2023-01-06T23:54:02.100Z,100062.47
2023-01-06T23:56:30.689Z,100059.06
2023-01-06T23:58:58.921Z,100051.38
